Terminal Aerodrome Forecast
Issued by NWS

Home | Current Version | Previous Version | Text Only | Print | Product List | Glossary On
Versions: 1 2 3 4 5 6 7 8 9 10 11 12 13 14 15
000
FTUS43 KTOP 010700 AAA
TAFMHK
TAF AMD
KMHK 010734Z 0108/0206 17012G20KT 2SM TSRA BR OVC025CB
     FM010900 18007G17KT 6SM SHRA VCTS SCT015 OVC035CB
     FM011200 18009KT P6SM SCT025 BKN040
     FM012200 17010KT P6SM VCTS SCT025 BKN040CB=

USA.gov is the U.S. government's official web portal to all federal, state and local government web resources and services.